Terminal Aerodrome Forecast
Issued by NWS

Home | Current Version | Previous Version | Text Only | Print | Product List | Glossary On
Versions: 1 2 3 4 5 6 7 8 9 10 11 12 13 14 15 16 17 18 19 20 21
000
FTAK31 PAJN 012300
TAFAKT
TAF
PAKT 012321Z 0200/0224 31010KT P6SM SKC
     FM020300 24008KT P6SM SCT100
     FM021100 13009KT P6SM BKN015
     FM021400 14008KT P6SM BKN007 OVC015
     FM021900 12012KT P6SM SCT050
      AMD LTD TO CLD VIS AND WIND 0206/0215=

USA.gov is the U.S. government's official web portal to all federal, state and local government web resources and services.